createdAt,value
2019-05-07T00:00:55.680Z,63.50
2019-05-07T00:03:22.469Z,66.55
2019-05-07T00:05:49.193Z,71.80
2019-05-07T00:08:15.975Z,70.90
2019-05-07T00:10:42.692Z,63.25
2019-05-07T00:13:09.358Z,65.12
2019-05-07T00:15:36.216Z,62.60
2019-05-07T00:18:03.388Z,62.00
2019-05-07T00:20:32.555Z,60.50
2019-05-07T00:22:58.975Z,48.15
2019-05-07T00:25:25.670Z,59.45
2019-05-07T00:27:54.848Z,49.45
2019-05-07T00:30:22.361Z,49.40
2019-05-07T00:32:49.216Z,53.58
2019-05-07T00:35:18.528Z,49.75
2019-05-07T00:37:52.382Z,55.08
2019-05-07T00:40:45.014Z,57.65
2019-05-07T00:43:17.833Z,59.27
2019-05-07T00:46:04.098Z,51.35
2019-05-07T00:48:32.832Z,53.55
2019-05-07T00:51:17.677Z,53.10
2019-05-07T00:53:44.454Z,54.77
2019-05-07T00:56:12.420Z,55.65
2019-05-07T00:58:39.342Z,56.55
2019-05-07T01:01:06.442Z,61.05
2019-05-07T01:03:33.907Z,64.65
2019-05-07T01:06:02.072Z,62.65
2019-05-07T01:08:29.102Z,62.40
2019-05-07T01:10:56.175Z,61.45
2019-05-07T01:13:23.527Z,52.53
2019-05-07T01:15:50.440Z,57.88
2019-05-07T01:18:17.120Z,61.55
2019-05-07T01:20:43.722Z,58.02
2019-05-07T01:23:13.234Z,53.30
2019-05-07T01:25:39.406Z,51.08
2019-05-07T01:28:06.191Z,55.05
2019-05-07T01:30:32.994Z,59.38
2019-05-07T01:33:20.175Z,59.60
2019-05-07T01:36:10.304Z,67.62
2019-05-07T01:38:36.995Z,69.55
2019-05-07T01:41:03.739Z,77.10
2019-05-07T01:43:32.124Z,77.67
2019-05-07T01:45:59.061Z,68.45
2019-05-07T01:48:26.889Z,82.55
2019-05-07T01:50:53.689Z,83.25
2019-05-07T01:53:22.600Z,89.67
2019-05-07T01:55:49.147Z,81.28
2019-05-07T01:58:15.911Z,103.07
2019-05-07T02:00:42.706Z,108.80
2019-05-07T02:03:16.936Z,104.12
2019-05-07T02:05:49.700Z,108.80
2019-05-07T02:08:26.601Z,95.90
2019-05-07T02:13:41.891Z,89.50
2019-05-07T02:16:08.439Z,98.72
2019-05-07T02:18:35.153Z,102.58
2019-05-07T02:21:03.979Z,96.25
2019-05-07T02:23:32.869Z,94.35
2019-05-07T02:25:59.375Z,83.05
2019-05-07T02:28:26.142Z,89.10
2019-05-07T02:30:56.736Z,86.55
2019-05-07T02:33:23.695Z,69.92
2019-05-07T02:35:53.351Z,89.25
2019-05-07T02:38:26.725Z,70.28
2019-05-07T02:41:15.779Z,74.20
2019-05-07T02:43:43.762Z,68.92
2019-05-07T02:46:33.003Z,70.60
2019-05-07T02:49:23.475Z,64.82
2019-05-07T02:51:56.536Z,57.73
2019-05-07T02:54:28.182Z,60.38
2019-05-07T02:56:56.205Z,57.58
2019-05-07T02:59:23.504Z,60.17
2019-05-07T03:01:53.464Z,52.20
2019-05-07T03:04:19.263Z,55.33
2019-05-07T03:06:46.063Z,52.05
2019-05-07T03:09:14.368Z,52.45
2019-05-07T03:11:43.445Z,51.33
2019-05-07T03:14:10.246Z,47.85
2019-05-07T03:16:43.629Z,48.85
2019-05-07T03:19:05.631Z,52.62
2019-05-07T03:21:53.457Z,48.92
2019-05-07T03:24:25.127Z,48.63
2019-05-07T03:26:53.584Z,54.40
2019-05-07T03:29:24.024Z,50.70
2019-05-07T03:32:16.537Z,48.20
2019-05-07T03:34:50.379Z,48.55
2019-05-07T03:37:23.681Z,57.03
2019-05-07T03:39:50.427Z,54.45
2019-05-07T03:42:17.265Z,49.80
2019-05-07T03:45:09.258Z,51.55
2019-05-07T03:47:38.391Z,46.20
2019-05-07T03:50:07.731Z,57.90
2019-05-07T03:52:35.707Z,53.73
2019-05-07T03:55:03.669Z,54.42
2019-05-07T03:57:33.329Z,52.95
2019-05-07T03:59:59.993Z,55.90
2019-05-07T04:02:26.771Z,60.58
2019-05-07T04:04:53.543Z,57.85
2019-05-07T04:07:23.368Z,53.48
2019-05-07T04:09:53.331Z,60.80
2019-05-07T04:12:20.084Z,68.85
2019-05-07T04:14:46.669Z,70.60
2019-05-07T04:17:21.405Z,67.20
2019-05-07T04:19:44.119Z,71.02
2019-05-07T04:22:13.373Z,63.68
2019-05-07T04:25:04.419Z,63.33
2019-05-07T04:27:46.288Z,55.15
2019-05-07T04:30:12.747Z,57.75
2019-05-07T04:32:46.432Z,62.38
2019-05-07T04:35:29.155Z,57.90
2019-05-07T04:37:55.956Z,60.43
2019-05-07T04:40:24.023Z,55.12
2019-05-07T04:42:53.750Z,49.15
2019-05-07T04:45:23.184Z,50.63
2019-05-07T04:47:49.520Z,45.03
2019-05-07T04:50:36.756Z,41.63
2019-05-07T04:52:47.202Z,37.78
2019-05-07T04:55:14.892Z,42.40
2019-05-07T04:57:43.877Z,37.83
2019-05-07T05:00:13.392Z,44.18
2019-05-07T05:02:53.184Z,39.20
2019-05-07T05:05:23.266Z,40.73
2019-05-07T05:07:49.119Z,43.13
2019-05-07T05:10:15.910Z,44.67
2019-05-07T05:12:43.025Z,41.40
2019-05-07T05:15:12.054Z,41.25
2019-05-07T05:17:48.053Z,37.63
2019-05-07T05:20:08.072Z,42.62
2019-05-07T05:22:45.464Z,48.42
2019-05-07T05:25:16.331Z,51.63
2019-05-07T05:27:43.126Z,46.10
2019-05-07T05:30:17.226Z,43.08
2019-05-07T05:32:43.934Z,42.48
2019-05-07T05:35:12.638Z,38.73
2019-05-07T05:37:39.301Z,37.70
2019-05-07T05:40:28.369Z,39.58
2019-05-07T05:43:04.868Z,34.63
2019-05-07T05:45:38.719Z,38.80
2019-05-07T05:48:08.469Z,34.08
2019-05-07T05:50:55.957Z,35.00
2019-05-07T05:53:45.699Z,31.93
2019-05-07T05:56:19.635Z,31.15
2019-05-07T05:59:02.829Z,29.30
2019-05-07T06:01:52.176Z,29.90
2019-05-07T06:04:26.570Z,30.65
2019-05-07T06:07:08.804Z,26.42
2019-05-07T06:09:57.118Z,26.95
2019-05-07T06:12:46.142Z,24.43
2019-05-07T06:15:23.084Z,22.67
2019-05-07T06:20:58.795Z,26.95
2019-05-07T06:23:37.033Z,24.80
2019-05-07T06:26:05.028Z,23.75
2019-05-07T06:28:33.046Z,26.00
2019-05-07T06:31:02.023Z,22.90
2019-05-07T06:33:28.484Z,24.47
2019-05-07T06:35:55.294Z,24.18
2019-05-07T06:38:23.004Z,22.80
2019-05-07T06:41:03.967Z,23.80
2019-05-07T06:43:38.406Z,22.82
2019-05-07T06:46:05.308Z,22.65
2019-05-07T06:48:41.959Z,24.30
2019-05-07T06:51:02.885Z,20.62
2019-05-07T06:53:32.942Z,21.73
2019-05-07T06:56:02.669Z,22.10
2019-05-07T06:58:35.157Z,18.70
2019-05-07T07:01:36.607Z,16.02
2019-05-07T07:04:09.534Z,17.90
2019-05-07T07:06:55.773Z,17.95
2019-05-07T07:09:29.058Z,18.40
2019-05-07T07:11:59.403Z,13.70
2019-05-07T07:14:26.279Z,22.45
2019-05-07T07:16:52.951Z,16.52
2019-05-07T07:19:23.128Z,18.05
2019-05-07T07:21:49.509Z,15.93
2019-05-07T07:24:16.279Z,18.50
2019-05-07T07:26:43.094Z,17.48
2019-05-07T07:29:12.711Z,14.43
2019-05-07T07:31:46.459Z,17.55
2019-05-07T07:34:13.200Z,18.40
2019-05-07T07:36:47.109Z,17.48
2019-05-07T07:39:13.823Z,12.88
2019-05-07T07:41:47.483Z,15.58
2019-05-07T07:44:14.272Z,17.62
2019-05-07T07:46:42.415Z,15.48
2019-05-07T07:49:14.032Z,15.80
2019-05-07T07:51:42.202Z,15.38
2019-05-07T07:54:06.962Z,13.48
2019-05-07T07:56:56.332Z,11.78
2019-05-07T07:59:42.208Z,12.65
2019-05-07T08:02:23.169Z,13.85
2019-05-07T08:04:50.021Z,15.65
2019-05-07T08:07:16.778Z,11.57
2019-05-07T08:09:43.541Z,15.95
2019-05-07T08:12:12.544Z,11.68
2019-05-07T08:14:39.012Z,9.30
2019-05-07T08:17:07.478Z,14.30
2019-05-07T08:19:34.253Z,15.65
2019-05-07T08:22:02.924Z,11.65
2019-05-07T08:24:31.907Z,19.25
2019-05-07T08:26:58.434Z,11.10
2019-05-07T08:29:25.118Z,13.90
2019-05-07T08:32:12.603Z,20.88
2019-05-07T08:34:47.631Z,14.13
2019-05-07T08:37:14.421Z,12.47
2019-05-07T08:39:42.858Z,10.88
2019-05-07T08:42:12.110Z,11.00
2019-05-07T08:44:44.991Z,11.43
2019-05-07T08:47:18.220Z,12.07
2019-05-07T08:49:44.796Z,12.00
2019-05-07T08:52:12.113Z,10.43
2019-05-07T08:54:38.978Z,9.58
2019-05-07T08:57:05.765Z,6.90
2019-05-07T08:59:33.613Z,9.40
2019-05-07T09:02:03.023Z,8.55
2019-05-07T09:04:29.415Z,9.85
2019-05-07T09:06:56.211Z,9.10
2019-05-07T09:09:22.987Z,9.05
2019-05-07T09:11:51.868Z,7.62
2019-05-07T09:14:18.638Z,8.00
2019-05-07T09:16:45.328Z,12.25
2019-05-07T09:19:12.920Z,10.90
2019-05-07T09:21:39.899Z,8.58
2019-05-07T09:24:07.383Z,9.18
2019-05-07T09:26:44.408Z,6.67
2019-05-07T09:29:28.466Z,6.90
2019-05-07T09:32:15.679Z,8.28
2019-05-07T09:34:44.585Z,8.48
2019-05-07T09:37:16.225Z,15.83
2019-05-07T09:39:43.058Z,10.50
2019-05-07T09:42:12.066Z,7.65
2019-05-07T09:44:38.407Z,14.13
2019-05-07T09:47:05.205Z,13.00
2019-05-07T09:49:32.697Z,9.43
2019-05-07T09:51:59.549Z,12.13
2019-05-07T09:54:26.336Z,14.43
2019-05-07T09:56:53.023Z,11.03
2019-05-07T09:59:21.723Z,9.78
2019-05-07T10:01:48.482Z,9.78
2019-05-07T10:04:15.276Z,9.28
2019-05-07T10:06:42.461Z,9.58
2019-05-07T10:09:09.319Z,8.95
2019-05-07T10:11:45.019Z,10.20
2019-05-07T10:14:12.504Z,10.72
2019-05-07T10:16:46.029Z,7.85
2019-05-07T10:19:12.774Z,11.08
2019-05-07T10:21:39.541Z,9.73
2019-05-07T10:24:06.317Z,9.13
2019-05-07T10:26:33.183Z,9.60
2019-05-07T10:29:02.000Z,9.33
2019-05-07T10:31:28.648Z,9.90
2019-05-07T10:33:55.452Z,8.85
2019-05-07T10:36:23.526Z,9.65
2019-05-07T10:38:52.063Z,7.30
2019-05-07T10:41:18.899Z,8.73
2019-05-07T10:43:45.728Z,8.63
2019-05-07T10:46:38.221Z,8.00
2019-05-07T10:49:14.784Z,8.13
2019-05-07T10:51:42.544Z,7.92
2019-05-07T10:54:09.456Z,7.95
2019-05-07T10:56:36.228Z,11.55
2019-05-07T10:59:03.699Z,9.38
2019-05-07T11:02:02.522Z,9.45
2019-05-07T11:04:40.163Z,10.30
2019-05-07T11:06:57.968Z,8.50
2019-05-07T11:09:24.670Z,11.00
2019-05-07T11:11:51.902Z,8.48
2019-05-07T11:14:18.700Z,6.83
2019-05-07T11:16:53.720Z,7.72
2019-05-07T11:19:22.096Z,8.48
2019-05-07T11:21:48.904Z,8.90
2019-05-07T11:24:15.597Z,7.97
2019-05-07T11:26:42.384Z,10.75
2019-05-07T11:29:09.006Z,10.45
2019-05-07T11:31:35.785Z,9.55
2019-05-07T11:34:04.565Z,8.83
2019-05-07T11:36:37.035Z,8.35
2019-05-07T11:39:05.379Z,10.08
2019-05-07T11:41:45.607Z,8.90
2019-05-07T11:44:17.481Z,12.18
2019-05-07T11:47:03.939Z,11.73
2019-05-07T11:49:56.349Z,10.85
2019-05-07T11:52:28.315Z,11.20
2019-05-07T11:54:55.084Z,8.15
2019-05-07T11:57:22.195Z,8.83
2019-05-07T11:59:48.862Z,9.28
2019-05-07T12:02:15.634Z,7.65
2019-05-07T12:04:42.323Z,9.05
2019-05-07T12:07:09.120Z,10.58
2019-05-07T12:09:35.903Z,7.72
2019-05-07T12:12:02.676Z,7.92
2019-05-07T12:14:32.520Z,8.33
2019-05-07T12:16:58.082Z,9.50
2019-05-07T12:19:24.751Z,8.35
2019-05-07T12:21:52.646Z,11.38
2019-05-07T12:24:19.444Z,7.15
2019-05-07T12:26:46.223Z,9.48
2019-05-07T12:29:12.960Z,7.35
2019-05-07T12:32:08.402Z,7.85
2019-05-07T12:34:38.275Z,7.92
2019-05-07T12:37:05.080Z,7.22
2019-05-07T12:39:32.023Z,8.03
2019-05-07T12:41:58.859Z,8.15
2019-05-07T12:44:27.192Z,6.70
2019-05-07T12:46:54.035Z,6.67
2019-05-07T12:49:22.113Z,6.47
2019-05-07T12:51:54.726Z,6.87
2019-05-07T12:54:36.089Z,7.30
2019-05-07T12:57:02.501Z,5.53
2019-05-07T12:59:29.604Z,6.65
2019-05-07T13:02:33.183Z,7.55
2019-05-07T13:04:45.058Z,7.00
2019-05-07T13:07:32.506Z,7.20
2019-05-07T13:09:59.402Z,8.00
2019-05-07T13:12:26.619Z,7.45
2019-05-07T13:14:53.439Z,7.12
2019-05-07T13:17:22.266Z,6.53
2019-05-07T13:19:48.910Z,5.80
2019-05-07T13:22:17.659Z,7.35
2019-05-07T13:24:46.884Z,6.40
2019-05-07T13:27:13.632Z,6.35
2019-05-07T13:29:42.491Z,8.73
2019-05-07T13:32:12.255Z,5.42
2019-05-07T13:34:42.550Z,7.45
2019-05-07T13:37:21.803Z,6.15
2019-05-07T13:39:53.781Z,6.37
2019-05-07T13:42:58.184Z,6.37
2019-05-07T13:45:33.304Z,7.72
2019-05-07T13:48:07.511Z,7.90
2019-05-07T13:50:54.399Z,6.05
2019-05-07T13:53:22.805Z,7.85
2019-05-07T13:55:50.175Z,6.12
2019-05-07T13:58:16.974Z,7.72
2019-05-07T14:01:06.711Z,8.18
2019-05-07T14:03:33.497Z,7.28
2019-05-07T14:06:02.091Z,6.03
2019-05-07T14:08:32.060Z,7.25
2019-05-07T14:10:58.940Z,6.17
2019-05-07T14:13:25.738Z,7.08
2019-05-07T14:16:05.717Z,6.53
2019-05-07T14:18:32.717Z,6.55
2019-05-07T14:21:01.783Z,8.98
2019-05-07T14:23:28.520Z,8.63
2019-05-07T14:25:55.184Z,8.00
2019-05-07T14:28:23.686Z,7.08
2019-05-07T14:30:52.255Z,7.78
2019-05-07T14:33:37.970Z,7.35
2019-05-07T14:36:11.625Z,7.10
2019-05-07T14:38:42.603Z,7.75
2019-05-07T14:41:09.558Z,7.67
2019-05-07T14:43:41.911Z,8.13
2019-05-07T14:46:08.792Z,6.62
2019-05-07T14:48:36.639Z,7.87
2019-05-07T14:51:03.524Z,7.92
2019-05-07T14:53:32.655Z,7.67
2019-05-07T14:55:59.730Z,8.70
2019-05-07T14:58:26.504Z,11.55
2019-05-07T15:00:54.682Z,12.25
2019-05-07T15:03:22.909Z,7.58
2019-05-07T15:05:55.115Z,7.45
2019-05-07T15:08:22.076Z,9.18
2019-05-07T15:10:48.949Z,8.83
2019-05-07T15:13:18.171Z,8.33
2019-05-07T15:15:45.338Z,10.28
2019-05-07T15:18:18.655Z,7.80
2019-05-07T15:20:45.758Z,10.30
2019-05-07T15:23:19.941Z,8.73
2019-05-07T15:25:46.813Z,11.28
2019-05-07T15:28:13.892Z,12.58
2019-05-07T15:30:56.107Z,9.93
2019-05-07T15:33:22.896Z,10.53
2019-05-07T15:35:51.570Z,10.80
2019-05-07T15:38:21.601Z,10.28
2019-05-07T15:40:48.395Z,9.68
2019-05-07T15:43:15.176Z,12.07
2019-05-07T15:45:41.989Z,11.90
2019-05-07T15:48:08.771Z,11.12
2019-05-07T15:50:35.456Z,10.10
2019-05-07T15:53:13.887Z,10.38
2019-05-07T15:55:41.750Z,8.68
2019-05-07T15:58:08.609Z,11.38
2019-05-07T16:00:36.727Z,10.68
2019-05-07T16:03:18.869Z,9.28
2019-05-07T16:05:45.608Z,8.40
2019-05-07T16:08:14.014Z,8.63
2019-05-07T16:10:42.897Z,8.63
2019-05-07T16:13:13.755Z,7.92
2019-05-07T16:15:42.385Z,7.60
2019-05-07T16:18:13.849Z,8.03
2019-05-07T16:20:42.342Z,22.15
2019-05-07T16:23:14.620Z,11.03
2019-05-07T16:25:38.251Z,8.45
2019-05-07T16:28:05.149Z,9.00
2019-05-07T16:30:34.397Z,8.98
2019-05-07T16:33:02.123Z,10.13
2019-05-07T16:35:29.059Z,10.15
2019-05-07T16:37:55.884Z,8.38
2019-05-07T16:40:23.052Z,9.63
2019-05-07T16:42:52.220Z,8.25
2019-05-07T16:45:19.427Z,10.10
2019-05-07T16:47:46.126Z,10.72
2019-05-07T16:50:13.455Z,9.20
2019-05-07T16:52:42.033Z,9.53
2019-05-07T16:55:12.105Z,8.40
2019-05-07T16:58:12.845Z,9.65
2019-05-07T17:00:46.495Z,12.85
2019-05-07T17:03:17.369Z,8.95
2019-05-07T17:05:43.968Z,9.93
2019-05-07T17:08:24.259Z,8.70
2019-05-07T17:10:52.356Z,10.48
2019-05-07T17:13:19.349Z,11.25
2019-05-07T17:15:58.778Z,10.82
2019-05-07T17:18:26.266Z,12.03
2019-05-07T17:20:53.655Z,10.82
2019-05-07T17:23:22.431Z,13.68
2019-05-07T17:25:49.195Z,11.85
2019-05-07T17:28:16.167Z,9.73
2019-05-07T17:30:42.848Z,13.55
2019-05-07T17:33:09.715Z,10.32
2019-05-07T17:35:36.448Z,10.58
2019-05-07T17:38:07.352Z,9.83
2019-05-07T17:40:32.185Z,9.33
2019-05-07T17:43:03.003Z,10.13
2019-05-07T17:45:29.269Z,11.22
2019-05-07T17:47:56.046Z,8.58
2019-05-07T17:50:27.842Z,10.18
2019-05-07T17:52:54.733Z,11.03
2019-05-07T17:55:22.305Z,11.20
2019-05-07T17:57:49.274Z,10.88
2019-05-07T18:00:17.039Z,9.35
2019-05-07T18:03:09.232Z,11.15
2019-05-07T18:05:35.923Z,10.13
2019-05-07T18:08:02.701Z,10.35
2019-05-07T18:10:31.752Z,10.60
2019-05-07T18:12:58.170Z,12.47
2019-05-07T18:15:24.825Z,11.33
2019-05-07T18:18:00.279Z,13.70
2019-05-07T18:20:27.267Z,11.73
2019-05-07T18:22:54.060Z,13.35
2019-05-07T18:25:21.727Z,12.63
2019-05-07T18:27:48.500Z,13.00
2019-05-07T18:30:15.393Z,10.82
2019-05-07T18:32:46.139Z,9.78
2019-05-07T18:37:52.509Z,11.78
2019-05-07T18:40:20.350Z,11.28
2019-05-07T18:42:47.131Z,13.45
2019-05-07T18:45:13.895Z,12.68
2019-05-07T18:47:40.587Z,10.78
2019-05-07T18:50:07.509Z,12.40
2019-05-07T18:52:34.096Z,11.78
2019-05-07T18:55:02.762Z,13.13
2019-05-07T18:57:29.397Z,13.50
2019-05-07T18:59:55.977Z,12.23
2019-05-07T19:02:22.775Z,13.30
2019-05-07T19:04:51.805Z,11.50
2019-05-07T19:07:18.284Z,11.90
2019-05-07T19:09:47.748Z,13.90
2019-05-07T19:12:15.991Z,14.40
2019-05-07T19:14:42.815Z,12.93
2019-05-07T19:17:09.508Z,11.28
2019-05-07T19:19:36.435Z,12.00
2019-05-07T19:22:03.199Z,13.70
2019-05-07T19:24:43.725Z,11.05
2019-05-07T19:26:58.547Z,10.90
2019-05-07T19:29:25.393Z,14.38
2019-05-07T19:31:52.619Z,13.03
2019-05-07T19:34:21.820Z,12.70
2019-05-07T19:36:48.535Z,13.65
2019-05-07T19:39:15.329Z,10.95
2019-05-07T19:41:43.009Z,13.45
2019-05-07T19:44:09.886Z,10.98
2019-05-07T19:46:36.666Z,10.95
2019-05-07T19:49:03.491Z,12.58
2019-05-07T19:51:31.980Z,9.90
2019-05-07T19:53:58.654Z,15.28
2019-05-07T19:56:25.427Z,11.48
2019-05-07T19:58:52.707Z,14.65
2019-05-07T20:01:37.013Z,13.70
2019-05-07T20:04:03.811Z,12.95
2019-05-07T20:06:32.746Z,13.43
2019-05-07T20:09:09.918Z,14.75
2019-05-07T20:11:39.042Z,14.35
2019-05-07T20:14:05.882Z,12.03
2019-05-07T20:16:33.937Z,12.23
2019-05-07T20:19:01.457Z,13.70
2019-05-07T20:21:28.232Z,15.65
2019-05-07T20:23:54.916Z,12.35
2019-05-07T20:26:23.177Z,13.55
2019-05-07T20:28:52.567Z,12.90
2019-05-07T20:31:19.101Z,12.25
2019-05-07T20:33:45.806Z,17.60
2019-05-07T20:36:12.593Z,14.73
2019-05-07T20:38:39.405Z,15.05
2019-05-07T20:41:06.212Z,13.90
2019-05-07T20:43:32.996Z,13.20
2019-05-07T20:46:00.079Z,12.60
2019-05-07T20:48:29.279Z,14.28
2019-05-07T20:50:56.355Z,11.93
2019-05-07T20:53:42.787Z,15.08
2019-05-07T20:56:11.710Z,16.37
2019-05-07T20:58:38.638Z,16.25
2019-05-07T21:01:05.450Z,17.00
2019-05-07T21:03:32.555Z,15.53
2019-05-07T21:05:59.304Z,18.07
2019-05-07T21:08:25.992Z,20.20
2019-05-07T21:10:53.794Z,16.90
2019-05-07T21:13:30.124Z,13.50
2019-05-07T21:15:49.445Z,13.55
2019-05-07T21:18:16.283Z,15.80
2019-05-07T21:20:43.038Z,16.85
2019-05-07T21:23:12.067Z,16.07
2019-05-07T21:25:45.203Z,17.35
2019-05-07T21:28:07.169Z,15.78
2019-05-07T21:30:33.974Z,14.38
2019-05-07T21:33:00.691Z,14.78
2019-05-07T21:35:27.377Z,14.30
2019-05-07T21:37:54.155Z,16.85
2019-05-07T21:40:22.465Z,18.35
2019-05-07T21:42:49.611Z,20.08
2019-05-07T21:45:16.528Z,13.98
2019-05-07T21:47:43.211Z,17.48
2019-05-07T21:50:12.284Z,17.25
2019-05-07T21:52:40.756Z,19.35
2019-05-07T21:55:23.572Z,16.50
2019-05-07T21:58:13.382Z,19.70
2019-05-07T22:01:02.131Z,18.35
2019-05-07T22:03:34.659Z,15.20
2019-05-07T22:05:58.702Z,19.15
2019-05-07T22:08:25.579Z,18.37
2019-05-07T22:10:52.562Z,16.67
2019-05-07T22:13:21.913Z,17.02
2019-05-07T22:15:48.355Z,17.62
2019-05-07T22:18:15.033Z,17.52
2019-05-07T22:20:42.685Z,19.37
2019-05-07T22:23:09.437Z,24.45
2019-05-07T22:25:36.483Z,19.40
2019-05-07T22:28:04.769Z,22.75
2019-05-07T22:30:52.803Z,22.45
2019-05-07T22:33:28.701Z,18.70
2019-05-07T22:35:55.615Z,19.77
2019-05-07T22:38:22.894Z,20.60
2019-05-07T22:40:51.692Z,22.30
2019-05-07T22:43:18.376Z,24.72
2019-05-07T22:45:45.167Z,25.65
2019-05-07T22:48:12.327Z,21.33
2019-05-07T22:50:39.200Z,23.15
2019-05-07T22:53:05.929Z,28.17
2019-05-07T22:55:32.892Z,20.15
2019-05-07T22:58:14.010Z,23.73
2019-05-07T23:00:49.834Z,21.12
2019-05-07T23:03:16.516Z,20.77
2019-05-07T23:05:44.956Z,22.58
2019-05-07T23:08:12.788Z,26.35
2019-05-07T23:10:39.845Z,23.90
2019-05-07T23:13:06.450Z,20.50
2019-05-07T23:15:33.313Z,26.45
2019-05-07T23:18:04.171Z,26.35
2019-05-07T23:20:28.858Z,21.40
2019-05-07T23:22:55.654Z,27.82
2019-05-07T23:25:24.465Z,22.50
2019-05-07T23:27:52.472Z,21.27
2019-05-07T23:30:19.391Z,24.85
2019-05-07T23:32:45.995Z,23.77
2019-05-07T23:35:13.178Z,24.10
2019-05-07T23:37:42.154Z,27.40
2019-05-07T23:40:15.963Z,26.15
2019-05-07T23:42:43.847Z,23.57
2019-05-07T23:45:12.560Z,23.50
2019-05-07T23:47:39.641Z,25.57
2019-05-07T23:50:06.621Z,25.35
2019-05-07T23:52:33.334Z,24.60
2019-05-07T23:55:03.012Z,22.27
2019-05-07T23:57:32.323Z,24.57
2019-05-07T23:59:58.315Z,24.60
